createdAt,value
2018-07-14T00:01:38.436Z,99.90
2018-07-14T00:04:05.966Z,99.90
2018-07-14T00:06:33.497Z,99.90
2018-07-14T00:09:01.009Z,99.90
2018-07-14T00:11:28.552Z,99.90
2018-07-14T00:13:56.092Z,99.90
2018-07-14T00:16:25.269Z,99.90
2018-07-14T00:18:52.816Z,99.90
2018-07-14T00:21:20.404Z,99.90
2018-07-14T00:23:47.949Z,99.90
2018-07-14T00:26:18.069Z,99.90
2018-07-14T00:28:46.484Z,99.90
2018-07-14T00:31:14.584Z,99.90
2018-07-14T00:33:42.119Z,99.90
2018-07-14T00:36:09.635Z,99.90
2018-07-14T00:38:37.186Z,99.90
2018-07-14T00:41:04.748Z,99.90
2018-07-14T00:43:32.275Z,99.90
2018-07-14T00:45:59.792Z,99.90
2018-07-14T00:48:27.316Z,99.90
2018-07-14T00:50:54.864Z,99.90
2018-07-14T00:53:22.646Z,99.90
2018-07-14T00:55:50.267Z,99.90
2018-07-14T00:58:17.808Z,99.90
2018-07-14T01:00:45.338Z,99.90
2018-07-14T01:03:12.872Z,99.90
2018-07-14T01:05:40.384Z,99.90
2018-07-14T01:08:07.913Z,99.90
2018-07-14T01:10:35.551Z,99.90
2018-07-14T01:13:03.113Z,99.90
2018-07-14T01:15:30.624Z,99.90
2018-07-14T01:17:58.165Z,99.90
2018-07-14T01:20:25.693Z,99.90
2018-07-14T01:22:53.240Z,99.90
2018-07-14T01:25:20.740Z,99.90
2018-07-14T01:27:48.260Z,99.90
2018-07-14T01:30:15.828Z,99.90
2018-07-14T01:32:43.377Z,99.90
2018-07-14T01:35:10.896Z,99.90
2018-07-14T01:37:38.443Z,99.90
2018-07-14T01:40:05.975Z,99.90
2018-07-14T01:42:33.552Z,99.90
2018-07-14T01:45:01.065Z,99.90
2018-07-14T01:47:28.737Z,99.90
2018-07-14T01:49:56.244Z,99.90
2018-07-14T01:52:23.791Z,99.90
2018-07-14T01:54:51.392Z,99.90
2018-07-14T01:57:18.929Z,99.90
2018-07-14T01:59:46.435Z,99.90
2018-07-14T02:02:13.964Z,99.90
2018-07-14T02:04:41.463Z,99.90
2018-07-14T02:07:08.991Z,99.90
2018-07-14T02:09:36.512Z,99.90
2018-07-14T02:12:04.075Z,99.90
2018-07-14T02:14:31.578Z,99.90
2018-07-14T02:16:59.140Z,99.90
2018-07-14T02:19:26.664Z,99.90
2018-07-14T02:21:54.220Z,99.90
2018-07-14T02:24:21.780Z,99.90
2018-07-14T02:26:49.291Z,99.90
2018-07-14T02:29:16.951Z,99.90
2018-07-14T02:31:44.675Z,99.90
2018-07-14T02:34:12.214Z,99.90
2018-07-14T02:36:39.894Z,99.90
2018-07-14T02:39:07.456Z,99.90
2018-07-14T02:41:34.985Z,99.90
2018-07-14T02:44:03.373Z,99.90
2018-07-14T02:46:30.885Z,99.90
2018-07-14T02:48:58.416Z,99.90
2018-07-14T02:51:25.924Z,99.90
2018-07-14T02:53:53.444Z,99.90
2018-07-14T02:56:20.964Z,99.90
2018-07-14T02:58:48.532Z,99.90
2018-07-14T03:01:16.032Z,99.90
2018-07-14T03:03:43.578Z,99.90
2018-07-14T03:06:11.079Z,99.90
2018-07-14T03:08:38.605Z,99.90
2018-07-14T03:11:06.128Z,99.90
2018-07-14T03:13:33.669Z,99.90
2018-07-14T03:16:01.188Z,99.90
2018-07-14T03:18:28.721Z,99.90
2018-07-14T03:20:56.231Z,99.90
2018-07-14T03:23:23.788Z,99.90
2018-07-14T03:25:51.336Z,99.90
2018-07-14T03:28:18.872Z,99.90
2018-07-14T03:30:46.384Z,99.90
2018-07-14T03:33:13.942Z,99.90
2018-07-14T03:35:41.458Z,99.90
2018-07-14T03:38:08.988Z,99.90
2018-07-14T03:40:36.504Z,99.90
2018-07-14T03:43:04.064Z,99.90
2018-07-14T03:45:31.572Z,99.90
2018-07-14T03:47:59.128Z,99.90
2018-07-14T03:50:26.652Z,99.90
2018-07-14T03:52:54.190Z,99.90
2018-07-14T03:55:21.711Z,99.90
2018-07-14T03:57:49.243Z,99.90
2018-07-14T04:00:16.756Z,99.90
2018-07-14T04:02:44.263Z,99.90
2018-07-14T04:05:11.787Z,99.90
2018-07-14T04:07:39.304Z,99.90
2018-07-14T04:10:07.124Z,99.90
2018-07-14T04:12:34.629Z,99.90
2018-07-14T04:15:02.168Z,99.90
2018-07-14T04:17:29.687Z,99.90
2018-07-14T04:19:57.223Z,99.90
2018-07-14T04:22:24.749Z,99.90
2018-07-14T04:24:52.301Z,99.90
2018-07-14T04:27:19.808Z,99.90
2018-07-14T04:29:47.332Z,99.90
2018-07-14T04:32:14.840Z,99.90
2018-07-14T04:34:42.367Z,99.90
2018-07-14T04:37:09.867Z,99.90
2018-07-14T04:39:37.403Z,99.90
2018-07-14T04:42:04.964Z,99.90
2018-07-14T04:44:32.496Z,99.90
2018-07-14T04:47:00.007Z,99.90
2018-07-14T04:49:27.599Z,99.90
2018-07-14T04:54:22.571Z,99.90
2018-07-14T04:56:50.095Z,99.90
2018-07-14T04:59:17.619Z,99.90
2018-07-14T05:01:45.180Z,99.90
2018-07-14T05:04:12.804Z,99.90
2018-07-14T05:06:40.472Z,99.90
2018-07-14T05:11:35.532Z,99.90
2018-07-14T05:14:03.325Z,99.90
2018-07-14T05:16:30.941Z,99.90
2018-07-14T05:18:58.499Z,99.90
2018-07-14T05:21:26.110Z,99.90
2018-07-14T05:23:53.795Z,99.90
2018-07-14T05:26:21.330Z,99.90
2018-07-14T05:28:49.276Z,99.90
2018-07-14T05:31:16.819Z,99.90
2018-07-14T05:33:44.376Z,99.90
2018-07-14T05:36:11.947Z,99.90
2018-07-14T05:38:39.521Z,99.90
2018-07-14T05:41:07.100Z,99.90
2018-07-14T05:43:34.656Z,99.90
2018-07-14T05:46:03.268Z,99.90
2018-07-14T05:48:30.827Z,99.90
2018-07-14T05:50:58.397Z,99.90
2018-07-14T05:53:25.953Z,99.90
2018-07-14T05:55:53.524Z,99.90
2018-07-14T05:58:21.086Z,99.90
2018-07-14T06:00:48.765Z,99.90
2018-07-14T06:03:16.308Z,99.90
2018-07-14T06:05:43.930Z,99.90
2018-07-14T06:08:11.629Z,99.90
2018-07-14T06:10:39.292Z,99.90
2018-07-14T06:13:06.827Z,99.90
2018-07-14T06:15:34.460Z,99.90
2018-07-14T06:18:01.972Z,99.90
2018-07-14T06:20:29.511Z,99.90
2018-07-14T06:22:57.044Z,99.90
2018-07-14T06:25:24.604Z,99.90
2018-07-14T06:27:52.128Z,99.90
2018-07-14T06:30:19.699Z,99.90
2018-07-14T06:32:47.236Z,99.90
2018-07-14T06:35:14.820Z,99.90
2018-07-14T06:37:42.764Z,99.90
2018-07-14T06:40:10.326Z,99.90
2018-07-14T06:42:37.832Z,99.90
2018-07-14T06:45:05.591Z,99.90
2018-07-14T06:47:33.156Z,99.90
2018-07-14T06:50:00.700Z,99.90
2018-07-14T06:52:28.253Z,99.90
2018-07-14T06:54:55.824Z,99.90
2018-07-14T06:57:23.334Z,99.90
2018-07-14T06:59:50.895Z,99.90
2018-07-14T07:02:18.404Z,99.90
2018-07-14T07:04:45.965Z,99.90
2018-07-14T07:07:13.481Z,99.90
2018-07-14T07:09:41.020Z,99.90
2018-07-14T07:12:08.548Z,99.90
2018-07-14T07:14:36.115Z,99.90
2018-07-14T07:17:03.689Z,99.90
2018-07-14T07:19:31.224Z,99.90
2018-07-14T07:21:58.755Z,99.90
2018-07-14T07:24:26.280Z,99.90
2018-07-14T07:26:53.783Z,99.90
2018-07-14T07:29:21.316Z,99.90
2018-07-14T07:31:48.816Z,99.90
2018-07-14T07:34:16.472Z,99.90
2018-07-14T07:36:44.038Z,99.90
2018-07-14T07:39:11.548Z,99.90
2018-07-14T07:41:39.871Z,99.90
2018-07-14T07:44:07.736Z,99.90
2018-07-14T07:46:35.264Z,99.90
2018-07-14T07:49:02.777Z,99.90
2018-07-14T07:51:30.292Z,99.90
2018-07-14T07:53:57.812Z,99.90
2018-07-14T07:56:25.543Z,99.90
2018-07-14T07:58:53.090Z,99.90
2018-07-14T08:01:20.742Z,99.90
2018-07-14T08:03:48.257Z,99.90
2018-07-14T08:06:15.784Z,99.90
2018-07-14T08:08:43.409Z,99.90
2018-07-14T08:11:10.844Z,99.90
2018-07-14T08:13:38.348Z,99.90
2018-07-14T08:16:05.935Z,99.90
2018-07-14T08:18:33.452Z,99.90
2018-07-14T08:21:00.979Z,99.90
2018-07-14T08:23:28.588Z,99.90
2018-07-14T08:25:56.261Z,99.90
2018-07-14T08:28:23.788Z,99.90
2018-07-14T08:30:51.324Z,99.90
2018-07-14T08:33:18.832Z,99.90
2018-07-14T08:35:46.357Z,99.90
2018-07-14T08:38:13.962Z,99.90
2018-07-14T08:40:41.460Z,99.90
2018-07-14T08:43:08.972Z,99.90
2018-07-14T08:45:36.479Z,99.90
2018-07-14T08:48:04.083Z,99.90
2018-07-14T08:50:31.664Z,99.90
2018-07-14T08:52:59.631Z,99.90
2018-07-14T08:55:27.136Z,99.90
2018-07-14T08:57:54.669Z,99.90
2018-07-14T09:00:22.171Z,99.90
2018-07-14T09:02:49.687Z,99.90
2018-07-14T09:05:17.206Z,99.90
2018-07-14T09:07:44.757Z,99.90
2018-07-14T09:10:12.275Z,99.90
2018-07-14T09:12:39.799Z,99.90
2018-07-14T09:15:07.520Z,99.90
2018-07-14T09:17:35.264Z,99.90
2018-07-14T09:20:02.812Z,99.90
2018-07-14T09:22:30.400Z,99.90
2018-07-14T09:24:57.923Z,99.90
2018-07-14T09:27:25.472Z,99.90
2018-07-14T09:29:52.985Z,99.90
2018-07-14T09:32:20.528Z,99.90
2018-07-14T09:34:48.045Z,99.90
2018-07-14T09:37:15.609Z,99.90
2018-07-14T09:39:43.117Z,99.90
2018-07-14T09:42:10.655Z,99.90
2018-07-14T09:44:38.229Z,99.90
2018-07-14T09:47:05.714Z,99.90
2018-07-14T09:49:33.265Z,99.90
2018-07-14T09:52:00.800Z,99.90
2018-07-14T09:54:28.312Z,99.90
2018-07-14T09:56:55.892Z,99.90
2018-07-14T09:59:23.401Z,99.90
2018-07-14T10:01:50.955Z,99.90
2018-07-14T10:04:18.481Z,99.90
2018-07-14T10:09:13.444Z,99.90
2018-07-14T10:11:40.968Z,99.90
2018-07-14T10:14:08.476Z,99.90
2018-07-14T10:16:36.028Z,99.90
2018-07-14T10:19:03.536Z,99.90
2018-07-14T10:21:31.100Z,99.90
2018-07-14T10:23:58.623Z,99.90
2018-07-14T10:26:26.206Z,99.90
2018-07-14T10:28:53.762Z,99.00
2018-07-14T10:31:21.281Z,99.70
2018-07-14T10:33:48.903Z,99.00
2018-07-14T10:36:16.344Z,99.20
2018-07-14T10:38:43.885Z,99.40
2018-07-14T10:41:11.409Z,99.50
2018-07-14T10:43:38.944Z,99.90
2018-07-14T10:46:06.709Z,97.30
2018-07-14T10:48:34.235Z,99.10
2018-07-14T10:51:01.744Z,98.30
2018-07-14T10:53:29.273Z,96.30
2018-07-14T10:55:56.793Z,96.70
2018-07-14T10:58:24.327Z,96.70
2018-07-14T11:00:51.860Z,95.00
2018-07-14T11:03:19.406Z,96.00
2018-07-14T11:05:46.904Z,96.00
2018-07-14T11:08:14.440Z,91.90
2018-07-14T11:10:41.952Z,96.00
2018-07-14T11:13:09.484Z,95.40
2018-07-14T11:15:37.020Z,92.10
2018-07-14T11:18:04.560Z,92.90
2018-07-14T11:20:32.064Z,94.50
2018-07-14T11:22:59.616Z,92.60
2018-07-14T11:25:27.176Z,93.40
2018-07-14T11:27:54.705Z,94.20
2018-07-14T11:30:22.253Z,91.60
2018-07-14T11:32:49.776Z,92.00
2018-07-14T11:35:17.336Z,92.20
2018-07-14T11:37:44.976Z,91.40
2018-07-14T11:40:12.552Z,91.40
2018-07-14T11:42:40.083Z,92.70
2018-07-14T11:45:07.641Z,86.40
2018-07-14T11:47:35.222Z,91.80
2018-07-14T11:50:02.784Z,91.80
2018-07-14T11:52:30.326Z,91.50
2018-07-14T11:54:57.864Z,91.00
2018-07-14T11:57:25.400Z,91.10
2018-07-14T11:59:52.904Z,88.70
2018-07-14T12:02:20.477Z,87.40
2018-07-14T12:04:47.989Z,88.60
2018-07-14T12:07:15.520Z,87.50
2018-07-14T12:09:43.072Z,91.20
2018-07-14T12:12:11.009Z,90.50
2018-07-14T12:14:38.576Z,86.70
2018-07-14T12:17:06.248Z,88.10
2018-07-14T12:19:33.820Z,90.00
2018-07-14T12:22:01.352Z,91.80
2018-07-14T12:24:28.880Z,90.60
2018-07-14T12:26:56.413Z,90.70
2018-07-14T12:29:23.947Z,92.70
2018-07-14T12:31:51.471Z,92.30
2018-07-14T12:34:19.009Z,92.00
2018-07-14T12:36:46.612Z,89.90
2018-07-14T12:39:14.087Z,88.90
2018-07-14T12:41:41.631Z,90.70
2018-07-14T12:44:09.272Z,83.50
2018-07-14T12:46:36.769Z,81.20
2018-07-14T12:49:04.376Z,85.80
2018-07-14T12:51:31.919Z,81.50
2018-07-14T12:53:59.532Z,80.20
2018-07-14T12:56:27.237Z,83.90
2018-07-14T12:58:54.809Z,80.50
2018-07-14T13:01:22.397Z,80.60
2018-07-14T13:03:50.166Z,80.90
2018-07-14T13:06:17.753Z,74.30
2018-07-14T13:11:12.858Z,77.00
2018-07-14T13:13:40.543Z,77.10
2018-07-14T13:16:08.443Z,77.90
2018-07-14T13:18:36.064Z,73.80
2018-07-14T13:21:03.632Z,74.60
2018-07-14T13:23:31.334Z,76.90
2018-07-14T13:25:59.051Z,82.00
2018-07-14T13:28:26.638Z,78.90
2018-07-14T13:30:54.192Z,74.10
2018-07-14T13:33:21.773Z,74.00
2018-07-14T13:35:49.318Z,75.20
2018-07-14T13:38:16.881Z,75.40
2018-07-14T13:40:44.416Z,75.50
2018-07-14T13:43:12.114Z,73.40
2018-07-14T13:45:39.735Z,73.20
2018-07-14T13:48:07.305Z,73.80
2018-07-14T13:50:34.888Z,76.10
2018-07-14T13:53:02.523Z,71.50
2018-07-14T13:55:30.061Z,76.30
2018-07-14T13:57:57.655Z,76.00
2018-07-14T14:00:25.254Z,71.80
2018-07-14T14:02:52.856Z,74.00
2018-07-14T14:05:20.449Z,76.30
2018-07-14T14:07:48.100Z,72.90
2018-07-14T14:10:15.772Z,70.80
2018-07-14T14:12:43.346Z,71.10
2018-07-14T14:15:11.046Z,67.50
2018-07-14T14:17:38.701Z,70.40
2018-07-14T14:20:06.332Z,68.10
2018-07-14T14:22:33.943Z,69.60
2018-07-14T14:25:01.545Z,73.10
2018-07-14T14:27:29.097Z,74.20
2018-07-14T14:29:56.804Z,70.40
2018-07-14T14:32:24.405Z,69.70
2018-07-14T14:34:52.315Z,70.50
2018-07-14T14:37:19.958Z,69.60
2018-07-14T14:39:47.585Z,67.40
2018-07-14T14:42:15.205Z,65.80
2018-07-14T14:44:42.926Z,67.90
2018-07-14T14:47:10.488Z,66.80
2018-07-14T14:49:38.260Z,65.60
2018-07-14T14:52:05.843Z,64.20
2018-07-14T14:54:33.427Z,71.90
2018-07-14T14:57:01.368Z,70.30
2018-07-14T14:59:28.973Z,71.60
2018-07-14T15:01:56.579Z,72.30
2018-07-14T15:04:24.268Z,70.80
2018-07-14T15:06:52.216Z,71.20
2018-07-14T15:09:19.952Z,69.90
2018-07-14T15:11:47.534Z,67.90
2018-07-14T15:14:15.200Z,70.60
2018-07-14T15:16:42.908Z,71.50
2018-07-14T15:19:10.492Z,76.30
2018-07-14T15:21:38.155Z,76.20
2018-07-14T15:24:05.836Z,78.10
2018-07-14T15:26:33.444Z,76.00
2018-07-14T15:29:01.112Z,79.50
2018-07-14T15:31:28.831Z,82.90
2018-07-14T15:33:56.381Z,82.60
2018-07-14T15:36:24.026Z,84.50
2018-07-14T15:38:51.629Z,90.10
2018-07-14T15:41:19.257Z,90.20
2018-07-14T15:43:46.886Z,90.20
2018-07-14T15:46:14.537Z,90.40
2018-07-14T15:51:09.662Z,88.70
2018-07-14T15:53:37.257Z,90.10
2018-07-14T15:56:05.784Z,90.70
2018-07-14T15:58:33.398Z,92.80
2018-07-14T16:01:01.017Z,90.90
2018-07-14T16:03:28.600Z,89.80
2018-07-14T16:05:56.190Z,90.70
2018-07-14T16:08:23.814Z,92.10
2018-07-14T16:10:51.412Z,89.20
2018-07-14T16:13:18.962Z,87.90
2018-07-14T16:15:46.556Z,87.70
2018-07-14T16:18:14.221Z,86.00
2018-07-14T16:20:42.423Z,90.20
2018-07-14T16:23:10.056Z,89.40
2018-07-14T16:25:38.411Z,89.20
2018-07-14T16:28:06.060Z,82.20
2018-07-14T16:30:33.867Z,89.30
2018-07-14T16:33:01.497Z,93.10
2018-07-14T16:35:29.154Z,94.10
2018-07-14T16:40:24.156Z,93.10
2018-07-14T16:42:51.750Z,94.50
2018-07-14T16:45:19.313Z,90.80
2018-07-14T16:47:46.904Z,91.80
2018-07-14T16:50:14.577Z,91.70
2018-07-14T16:55:09.708Z,91.60
2018-07-14T16:57:37.368Z,93.30
2018-07-14T17:00:05.244Z,95.50
2018-07-14T17:02:33.133Z,95.30
2018-07-14T17:05:00.676Z,97.00
2018-07-14T17:07:28.256Z,96.10
2018-07-14T17:09:55.806Z,95.30
2018-07-14T17:12:23.534Z,91.10
2018-07-14T17:14:51.155Z,89.90
2018-07-14T17:17:18.880Z,90.10
2018-07-14T17:19:46.440Z,93.90
2018-07-14T17:22:14.051Z,95.30
2018-07-14T17:24:41.680Z,94.30
2018-07-14T17:27:09.358Z,94.40
2018-07-14T17:29:36.925Z,95.30
2018-07-14T17:32:04.627Z,94.50
2018-07-14T17:34:32.220Z,94.50
2018-07-14T17:36:59.808Z,94.80
2018-07-14T17:39:27.388Z,96.00
2018-07-14T17:41:54.988Z,97.00
2018-07-14T17:44:22.564Z,97.80
2018-07-14T17:46:50.180Z,99.20
2018-07-14T17:49:17.864Z,99.60
2018-07-14T17:51:45.569Z,99.90
2018-07-14T17:54:13.044Z,99.90
2018-07-14T17:56:40.638Z,99.90
2018-07-14T17:59:08.273Z,99.90
2018-07-14T18:01:35.884Z,99.90
2018-07-14T18:04:03.488Z,99.90
2018-07-14T18:06:31.053Z,99.90
2018-07-14T18:08:58.653Z,99.90
2018-07-14T18:11:26.608Z,99.90
2018-07-14T18:13:54.228Z,99.90
2018-07-14T18:16:21.853Z,99.90
2018-07-14T18:18:49.400Z,99.90
2018-07-14T18:21:17.070Z,99.90
2018-07-14T18:23:44.636Z,99.90
2018-07-14T18:26:12.190Z,99.90
2018-07-14T18:28:39.744Z,99.90
2018-07-14T18:31:07.279Z,99.90
2018-07-14T18:33:34.966Z,99.90
2018-07-14T18:36:03.696Z,99.90
2018-07-14T18:38:31.382Z,99.90
2018-07-14T18:40:58.997Z,99.90
2018-07-14T18:43:26.704Z,99.90
2018-07-14T18:45:54.288Z,99.90
2018-07-14T18:48:22.509Z,99.90
2018-07-14T18:50:51.130Z,99.90
2018-07-14T18:53:18.673Z,99.90
2018-07-14T18:55:46.172Z,99.90
2018-07-14T18:58:14.072Z,99.90
2018-07-14T19:00:41.604Z,99.90
2018-07-14T19:03:09.168Z,99.90
2018-07-14T19:05:36.787Z,99.90
2018-07-14T19:08:04.967Z,99.90
2018-07-14T19:10:32.488Z,99.90
2018-07-14T19:13:00.045Z,99.90
2018-07-14T19:15:27.678Z,99.90
2018-07-14T19:17:55.223Z,99.90
2018-07-14T19:20:22.775Z,99.90
2018-07-14T19:22:50.310Z,99.90
2018-07-14T19:25:17.876Z,99.90
2018-07-14T19:27:45.420Z,99.90
2018-07-14T19:30:13.013Z,99.90
2018-07-14T19:32:40.542Z,99.90
2018-07-14T19:35:08.321Z,99.90
2018-07-14T19:37:35.873Z,99.90
2018-07-14T19:40:03.626Z,99.90
2018-07-14T19:42:31.339Z,99.90
2018-07-14T19:44:58.900Z,99.90
2018-07-14T19:47:26.437Z,99.90
2018-07-14T19:49:53.980Z,99.90
2018-07-14T19:52:21.613Z,99.90
2018-07-14T19:54:49.157Z,99.90
2018-07-14T19:57:16.704Z,99.90
2018-07-14T19:59:44.360Z,99.90
2018-07-14T20:02:11.876Z,99.90
2018-07-14T20:04:39.429Z,99.90
2018-07-14T20:07:06.992Z,99.90
2018-07-14T20:09:34.546Z,99.90
2018-07-14T20:12:02.196Z,99.90
2018-07-14T20:14:29.740Z,99.90
2018-07-14T20:16:57.743Z,99.90
2018-07-14T20:19:25.312Z,99.90
2018-07-14T20:21:52.868Z,99.90
2018-07-14T20:24:20.469Z,99.90
2018-07-14T20:26:48.016Z,99.90
2018-07-14T20:29:15.551Z,99.90
2018-07-14T20:31:43.128Z,99.90
2018-07-14T20:34:11.211Z,99.90
2018-07-14T20:36:38.764Z,99.90
2018-07-14T20:39:06.657Z,99.90
2018-07-14T20:41:35.064Z,99.90
2018-07-14T20:44:02.808Z,99.90
2018-07-14T20:46:30.336Z,99.90
2018-07-14T20:48:57.847Z,99.90
2018-07-14T20:51:25.395Z,99.90
2018-07-14T20:53:52.925Z,99.90
2018-07-14T20:56:20.480Z,99.90
2018-07-14T20:58:48.104Z,99.90
2018-07-14T21:01:15.655Z,99.90
2018-07-14T21:03:43.211Z,99.90
2018-07-14T21:06:10.789Z,99.90
2018-07-14T21:08:38.244Z,99.90
2018-07-14T21:11:05.798Z,99.90
2018-07-14T21:13:33.313Z,99.90
2018-07-14T21:16:00.852Z,99.90
2018-07-14T21:18:28.395Z,99.90
2018-07-14T21:20:56.093Z,99.90
2018-07-14T21:23:23.520Z,99.90
2018-07-14T21:25:51.053Z,99.90
2018-07-14T21:28:18.559Z,99.90
2018-07-14T21:33:13.526Z,99.90
2018-07-14T21:35:41.052Z,99.90
2018-07-14T21:38:08.572Z,99.90
2018-07-14T21:40:36.136Z,99.90
2018-07-14T21:43:03.720Z,99.90
2018-07-14T21:45:31.257Z,99.90
2018-07-14T21:47:58.816Z,99.90
2018-07-14T21:50:26.344Z,99.90
2018-07-14T21:52:53.848Z,99.90
2018-07-14T21:55:21.380Z,99.90
2018-07-14T21:57:48.888Z,99.90
2018-07-14T22:00:26.026Z,99.90
2018-07-14T22:02:53.554Z,99.90
2018-07-14T22:05:21.076Z,99.90
2018-07-14T22:07:48.588Z,99.90
2018-07-14T22:10:16.133Z,99.90
2018-07-14T22:12:43.673Z,99.90
2018-07-14T22:15:11.257Z,99.90
2018-07-14T22:17:38.757Z,99.90
2018-07-14T22:20:06.361Z,99.90
2018-07-14T22:22:33.911Z,99.90
2018-07-14T22:25:01.428Z,99.90
2018-07-14T22:27:28.988Z,99.90
2018-07-14T22:29:56.533Z,99.90
2018-07-14T22:32:24.056Z,99.90
2018-07-14T22:34:51.580Z,99.90
2018-07-14T22:37:19.264Z,99.90
2018-07-14T22:39:46.768Z,99.90
2018-07-14T22:42:14.351Z,99.90
2018-07-14T22:44:41.861Z,99.90
2018-07-14T22:47:09.395Z,99.90
2018-07-14T22:49:36.914Z,99.90
2018-07-14T22:52:04.440Z,99.90
2018-07-14T22:54:31.944Z,99.90
2018-07-14T22:56:59.523Z,99.90
2018-07-14T22:59:27.038Z,99.90
2018-07-14T23:01:54.585Z,99.90
2018-07-14T23:04:22.104Z,99.90
2018-07-14T23:06:49.692Z,99.90
2018-07-14T23:09:17.212Z,99.90
2018-07-14T23:11:44.772Z,99.90
2018-07-14T23:14:12.292Z,99.90
2018-07-14T23:16:39.823Z,99.90
2018-07-14T23:19:07.337Z,99.90
2018-07-14T23:21:34.879Z,99.90
2018-07-14T23:24:02.484Z,99.90
2018-07-14T23:26:30.030Z,99.90
2018-07-14T23:28:57.532Z,99.90
2018-07-14T23:31:25.161Z,99.90
2018-07-14T23:33:52.684Z,99.90
2018-07-14T23:36:20.213Z,99.90
2018-07-14T23:38:47.721Z,99.90
2018-07-14T23:41:15.260Z,99.90
2018-07-14T23:43:42.792Z,99.90
2018-07-14T23:46:10.336Z,99.90
2018-07-14T23:48:37.846Z,99.90
2018-07-14T23:51:05.681Z,99.90
2018-07-14T23:53:33.204Z,99.90
2018-07-14T23:56:00.806Z,99.90
2018-07-14T23:58:28.324Z,99.90
